Jean Philippe Monclin

Jean Philippe Monclin

Statistiques 2026

  • Courses courues : 76
  • Nb de victoires : 17
  • Nb de places : 35
  • Écart gagnant : 2
  • Réussite à la gagne : 22%
  • Réussite à la place : 46%
Musique : 0a 2a 1a 0a 4a 0a 4a 1a 6a Da 3a Da 3a 1a 1a 3a 5a 2a
DateRangCatégorieAlloc.Dist.HippodromeChevalRed. KmSpé.
06/03/09 7 Trot 23 000€ 2 825m Cordemais Major de la Vronde Monté lire

A figuré avant de céder pour finir.

03/10/10 9 Trot 11 000€ 2 150m Cordemais Under Your Eyes 1'23"3 Attelé
03/10/10 6 Trot 14 000€ 2 850m Cordemais Saphira de la Rive 1'20"0 Attelé
31/01/10 3 Trot 10 000€ 2 825m Cordemais Super Berry Chenou 1'19"1 Attelé
21/03/10 2 Trot 18 000€ 2 850m Cordemais Remember Jihem 1'15"8 Monté lire

Après avoir patienté dans la seconde partie du peloton, a fourni un très bon effort final.

21/03/10 3 Trot 28 000€ 2 850m Cordemais Putting 1'16"7 Attelé lire

Vite à l'arrière, s'est rapproché au dernier passage en face puis a bien soutenu son effort jusqu'au bout. A gagné un rang après enquête.

04/04/10 5 Trot 15 000€ 2 850m Cordemais Quobernador 1'17"5 Attelé
29/11/20 7 Trot 10 000€ 2 150m Cordemais Invecto 1'17"8 Attelé
29/11/20 7 Trot 21 000€ 2 850m Cordemais Carre Noir 1'13"5 Attelé
29/11/20 2 Trot 14 000€ 2 825m Cordemais Floralyse d'Authou 1'13"7 Attelé
29/11/20 2 Trot 13 000€ 2 825m Cordemais Heagle One 1'16"1 Attelé
29/11/20 2 Trot 12 000€ 2 825m Cordemais Gazelle de Monts 1'15"8 Attelé
29/11/20 1 Trot 12 000€ 2 825m Cordemais Gagnant 1'13"5 Attelé
20/12/20 D Trot 12 000€ 2 825m Cordemais Hippo Josselyn Attelé
20/12/20 2 Trot 12 000€ 2 825m Cordemais Henao de Victhi 1'16"3 Attelé
20/12/20 3 Trot 14 000€ 2 825m Cordemais Fronsac du Vivier 1'14"9 Attelé
20/12/20 1 Trot 19 000€ 2 825m Cordemais Espoir des Champs 1'14"6 Attelé
20/12/20 D Trot 12 000€ 2 825m Cordemais Gold Of Night Attelé
20/12/20 2 Trot 12 000€ 2 825m Cordemais Glorious Life 1'15"8 Attelé
20/12/20 6 Trot 12 000€ 2 825m Cordemais Hysope Gede 1'16"6 Attelé
20/12/20 5 Trot 12 000€ 2 825m Cordemais Herlika du Plessis 1'17"5 Attelé
20/12/20 2 Trot 12 000€ 2 825m Cordemais Gerico de Godrel 1'15"8 Attelé
20/12/20 3 Trot 12 000€ 2 825m Cordemais Gandy des Tours 1'16"2 Attelé
26/12/20 7 Trot 16 000€ 2 825m Cordemais Filly des Corvees 1'16"0 Attelé
26/12/20 4 Trot 14 000€ 2 825m Cordemais Hadrien 1'17"8 Attelé
26/12/20 D Trot 14 000€ 2 825m Cordemais Gentlemen Golfeur Attelé
26/12/20 D Trot 14 000€ 2 825m Cordemais Graine d'Urzy Attelé
26/12/20 D Trot 16 000€ 2 825m Cordemais Equejuelo Attelé
26/12/20 2 Trot 21 000€ 2 850m Cordemais Caballo d'Aure 1'14"5 Attelé
12/03/21 1 Trot 15 000€ 2 850m Cordemais Harison du Plessis 1'18"8 Attelé
12/03/21 5 Trot 30 000€ 2 825m Cordemais Elizir du Home 1'15"8 Attelé
25/04/21 1 Trot 17 000€ 2 825m Cordemais Halfan Speed 1'15"4 Attelé
25/04/21 6 Trot 25 000€ 2 650m Cordemais Eolia de l'Elle 1'13"9 Attelé
25/04/21 D Trot 26 000€ 2 825m Cordemais Darold de Dypp Attelé lire

Principal animateur, a marqué le pas dans la phase finale et a été sanctionné pour allures douteuses.

25/04/21 4 Trot 22 000€ 2 825m Cordemais Falco du Hamel 1'15"0 Attelé
25/04/21 4 Trot 19 000€ 2 825m Cordemais Grace Renaudine 1'15"5 Attelé
16/03/14 D Trot 21 000€ 2 150m Cordemais Bayolo d'Echal Attelé
16/03/14 0 Trot 20 000€ 2 150m Cordemais Vanda Cadence Attelé
16/03/14 2 Trot 21 000€ 2 850m Cordemais Ablette Jihem 1'15"9 Attelé
16/03/14 0 Trot 28 000€ 2 825m Cordemais Triskell d'Enogat Attelé
05/10/14 2 Trot 18 000€ 2 850m Cordemais Vialys 1'16"1 Attelé
05/10/14 1 Trot 15 000€ 2 650m Cordemais Avrecourt 1'15"8 Attelé
05/10/14 9 Trot 28 000€ 2 650m Cordemais Ramses du Prieur 1'14"4 Attelé
21/12/14 1 Trot 13 000€ 2 825m Cordemais Business Class 1'19"2 Attelé
21/12/14 2 Trot 11 000€ 2 850m Cordemais Quartino 1'15"3 Attelé
21/12/14 D Trot 14 000€ 2 125m Cordemais Atout du Las Vegas Attelé
21/12/14 D Trot 14 000€ 2 125m Cordemais Aloha de Mars Attelé
04/01/15 D Trot 18 000€ 2 125m Cordemais Creole du Vivien Attelé
04/01/15 0 Trot 18 000€ 2 125m Cordemais Banco de Goupillel Attelé
04/01/15 3 Trot 18 000€ 2 125m Cordemais Bonnie Bond 1'17"1 Attelé